createdAt,value
2022-09-24T00:00:32.650Z,100865.09
2022-09-24T00:02:35.307Z,100878.34
2022-09-24T00:04:38.147Z,100862.94
2022-09-24T00:06:47.855Z,100849.09
2022-09-24T00:08:55.079Z,100880.59
2022-09-24T00:11:01.819Z,100791.28
2022-09-24T00:13:05.298Z,100764.66
2022-09-24T00:15:08.637Z,100855.34
2022-09-24T00:17:11.182Z,100835.78
2022-09-24T00:19:44.139Z,100838.94
2022-09-24T00:21:46.696Z,100867.19
2022-09-24T00:23:55.831Z,100873.47
2022-09-24T00:26:16.920Z,100842.38
2022-09-24T00:28:19.540Z,100825.03
2022-09-24T00:30:22.105Z,100863.88
2022-09-24T00:32:24.632Z,100841.59
2022-09-24T00:34:30.129Z,100846.97
2022-09-24T00:36:33.083Z,100846.97
2022-09-24T00:38:36.138Z,100844.28
2022-09-24T00:40:39.589Z,100855.44
2022-09-24T00:42:42.282Z,100835.91
2022-09-24T00:44:44.921Z,100843.69
2022-09-24T00:46:47.684Z,100734.53
2022-09-24T00:49:17.977Z,100788.38
2022-09-24T00:51:25.155Z,100815.06
2022-09-24T00:53:32.437Z,100807.88
2022-09-24T00:55:36.504Z,100807.88
2022-09-24T00:57:42.140Z,100757.75
2022-09-24T00:59:45.599Z,100757.75
2022-09-24T01:01:49.585Z,100757.75
2022-09-24T01:03:56.363Z,65468.00
2022-09-24T01:05:59.244Z,65468.00
2022-09-24T01:08:01.985Z,65468.00
2022-09-24T01:10:05.645Z,65468.00
2022-09-24T01:12:47.309Z,65468.00
2022-09-24T01:15:21.851Z,65468.00
2022-09-24T01:17:46.804Z,65468.00
2022-09-24T01:20:00.933Z,65468.00
2022-09-24T01:22:10.881Z,65468.00
2022-09-24T01:24:40.511Z,65468.00
2022-09-24T01:27:11.533Z,65468.00
2022-09-24T01:30:03.390Z,65468.00
2022-09-24T01:32:40.544Z,65468.00
2022-09-24T01:34:49.522Z,65468.00
2022-09-24T01:36:53.900Z,65468.00
2022-09-24T01:38:58.758Z,65468.00
2022-09-24T01:41:03.754Z,65468.00
2022-09-24T01:43:09.368Z,65468.00
2022-09-24T01:45:14.170Z,65468.00
2022-09-24T01:47:28.903Z,65468.00
2022-09-24T01:49:33.545Z,65468.00
2022-09-24T01:51:49.627Z,65468.00
2022-09-24T01:54:05.535Z,65468.00
2022-09-24T01:56:19.915Z,100757.75
2022-09-24T01:58:31.363Z,100757.75
2022-09-24T02:00:34.382Z,100757.75
2022-09-24T02:03:15.056Z,65468.00
2022-09-24T02:05:24.878Z,100757.75
2022-09-24T02:07:50.088Z,100757.75
2022-09-24T02:09:52.737Z,100757.75
2022-09-24T02:12:29.636Z,100757.75
2022-09-24T02:14:38.559Z,100783.03
2022-09-24T02:16:48.164Z,100780.41
2022-09-24T02:18:55.042Z,100780.41
2022-09-24T02:21:00.691Z,65468.00
2022-09-24T02:24:23.152Z,100775.53
2022-09-24T02:26:25.830Z,100764.34
2022-09-24T02:28:29.153Z,100751.03
2022-09-24T02:30:39.785Z,100727.94
2022-09-24T02:32:43.888Z,100780.31
2022-09-24T02:34:52.301Z,100780.31
2022-09-24T02:36:59.566Z,100780.31
2022-09-24T02:39:03.177Z,65468.00
2022-09-24T02:41:09.404Z,65468.00
2022-09-24T02:43:14.477Z,100698.88
2022-09-24T02:45:17.235Z,100698.88
2022-09-24T02:47:19.780Z,100698.88
2022-09-24T02:49:22.364Z,100764.19
2022-09-24T02:51:25.599Z,100764.19
2022-09-24T02:53:28.138Z,100698.47
2022-09-24T02:55:30.700Z,100756.50
2022-09-24T02:57:33.288Z,100756.50
2022-09-24T02:59:36.390Z,100756.50
2022-09-24T03:01:39.200Z,100756.50
2022-09-24T03:03:41.851Z,100756.50
2022-09-24T03:05:44.537Z,65468.00
2022-09-24T03:07:47.095Z,65468.00
2022-09-24T03:09:49.699Z,65468.00
2022-09-24T03:12:17.590Z,65468.00
2022-09-24T03:14:20.186Z,65468.00
2022-09-24T03:16:22.883Z,65468.00
2022-09-24T03:18:28.083Z,65468.00
2022-09-24T03:20:30.793Z,65468.00
2022-09-24T03:22:33.999Z,65468.00
2022-09-24T03:24:36.589Z,65468.00
2022-09-24T03:26:40.214Z,65468.00
2022-09-24T03:28:42.750Z,65468.00
2022-09-24T03:31:01.083Z,65468.00
2022-09-24T03:33:03.665Z,65468.00
2022-09-24T03:35:06.541Z,65468.00
2022-09-24T03:37:09.082Z,65468.00
2022-09-24T03:39:11.656Z,65468.00
2022-09-24T03:41:15.243Z,65468.00
2022-09-24T03:43:17.769Z,65468.00
2022-09-24T03:45:21.280Z,65468.00
2022-09-24T03:47:24.746Z,65468.00
2022-09-24T03:49:27.301Z,65468.00
2022-09-24T03:51:30.026Z,65468.00
2022-09-24T03:53:33.059Z,65468.00
2022-09-24T03:55:36.661Z,65468.00
2022-09-24T03:57:39.238Z,65468.00
2022-09-24T03:59:45.695Z,65468.00
2022-09-24T04:01:48.293Z,65468.00
2022-09-24T04:03:51.237Z,65468.00
2022-09-24T04:05:54.353Z,65468.00
2022-09-24T04:07:58.642Z,65468.00
2022-09-24T04:10:01.220Z,65468.00
2022-09-24T04:12:04.110Z,65468.00
2022-09-24T04:14:07.002Z,65468.00
2022-09-24T04:16:09.556Z,65468.00
2022-09-24T04:18:12.301Z,65468.00
2022-09-24T04:20:15.397Z,65468.00
2022-09-24T04:22:17.973Z,65468.00
2022-09-24T04:24:21.294Z,65468.00
2022-09-24T04:26:23.924Z,65468.00
2022-09-24T04:28:26.596Z,65468.00
2022-09-24T04:30:31.197Z,65468.00
2022-09-24T04:32:33.830Z,65468.00
2022-09-24T04:34:36.457Z,65468.00
2022-09-24T04:36:39.021Z,65468.00
2022-09-24T04:38:41.573Z,65468.00
2022-09-24T04:40:46.918Z,65468.00
2022-09-24T04:42:49.551Z,65468.00
2022-09-24T04:44:55.956Z,65468.00
2022-09-24T04:47:02.970Z,65468.00
2022-09-24T04:49:05.659Z,65468.00
2022-09-24T04:51:09.272Z,65468.00
2022-09-24T04:53:12.114Z,65468.00
2022-09-24T04:55:14.858Z,65468.00
2022-09-24T04:57:17.429Z,65468.00
2022-09-24T04:59:20.373Z,65468.00
2022-09-24T05:01:23.811Z,65468.00
2022-09-24T05:03:26.495Z,65468.00
2022-09-24T05:05:29.408Z,65468.00
2022-09-24T05:07:32.162Z,65468.00
2022-09-24T05:09:35.182Z,65468.00
2022-09-24T05:11:38.386Z,65468.00
2022-09-24T05:13:41.016Z,65468.00
2022-09-24T05:15:43.614Z,65468.00
2022-09-24T05:17:47.457Z,65468.00
2022-09-24T05:19:50.005Z,65468.00
2022-09-24T05:21:52.992Z,65468.00
2022-09-24T05:23:55.563Z,65468.00
2022-09-24T05:26:16.839Z,65468.00
2022-09-24T05:28:21.544Z,65468.00
2022-09-24T05:30:26.029Z,65468.00
2022-09-24T05:32:28.602Z,65468.00
2022-09-24T05:34:32.023Z,65468.00
2022-09-24T05:36:34.631Z,65468.00
2022-09-24T05:38:40.907Z,65468.00
2022-09-24T05:40:50.466Z,65468.00
2022-09-24T05:43:01.898Z,65468.00
2022-09-24T05:45:06.459Z,65468.00
2022-09-24T05:47:09.511Z,65468.00
2022-09-24T05:49:12.289Z,65468.00
2022-09-24T05:51:14.916Z,65468.00
2022-09-24T05:53:17.981Z,65468.00
2022-09-24T05:55:20.775Z,65468.00
2022-09-24T05:57:23.296Z,65468.00
2022-09-24T05:59:26.068Z,65468.00
2022-09-24T06:01:32.048Z,65468.00
2022-09-24T06:03:34.722Z,65468.00
2022-09-24T06:05:37.395Z,65468.00
2022-09-24T06:07:39.992Z,65468.00
2022-09-24T06:09:42.585Z,65468.00
2022-09-24T06:11:46.076Z,65468.00
2022-09-24T06:13:51.083Z,65468.00
2022-09-24T06:15:53.710Z,65468.00
2022-09-24T06:17:56.801Z,65468.00
2022-09-24T06:19:59.647Z,65468.00
2022-09-24T06:22:04.317Z,65468.00
2022-09-24T06:24:07.022Z,65468.00
2022-09-24T06:26:12.950Z,65468.00
2022-09-24T06:28:15.824Z,65468.00
2022-09-24T06:31:12.236Z,65468.00
2022-09-24T06:33:14.933Z,65468.00
2022-09-24T06:35:17.584Z,65468.00
2022-09-24T06:37:20.522Z,100756.50
2022-09-24T06:39:27.863Z,100756.50
2022-09-24T06:41:30.423Z,100756.50
2022-09-24T06:43:34.296Z,100742.50
2022-09-24T06:45:37.101Z,100706.31
2022-09-24T06:47:39.612Z,100717.47
2022-09-24T06:49:42.219Z,65468.00
2022-09-24T06:51:44.833Z,100717.47
2022-09-24T06:53:51.250Z,100615.69
2022-09-24T06:55:59.958Z,100615.69
2022-09-24T06:58:15.630Z,100615.69
2022-09-24T07:00:18.228Z,100721.97
2022-09-24T07:02:20.908Z,100723.44
2022-09-24T07:04:25.417Z,100745.81
2022-09-24T07:06:48.329Z,100717.94
2022-09-24T07:08:51.865Z,100709.22
2022-09-24T07:10:54.491Z,100747.53
2022-09-24T07:12:57.055Z,100731.66
2022-09-24T07:15:00.374Z,100752.16
2022-09-24T07:17:03.039Z,100757.00
2022-09-24T07:19:05.726Z,100702.66
2022-09-24T07:21:09.343Z,100732.38
2022-09-24T07:23:13.083Z,100726.34
2022-09-24T07:25:15.693Z,100751.09
2022-09-24T07:27:21.250Z,100754.88
2022-09-24T07:29:25.138Z,100617.19
2022-09-24T07:31:27.747Z,100617.19
2022-09-24T07:33:31.749Z,100730.53
2022-09-24T07:35:37.766Z,100756.06
2022-09-24T07:37:40.410Z,100728.78
2022-09-24T07:39:43.444Z,100647.84
2022-09-24T07:41:47.357Z,100744.47
2022-09-24T07:43:49.901Z,100760.19
2022-09-24T07:45:54.537Z,100754.38
2022-09-24T07:48:05.709Z,100714.03
2022-09-24T07:50:09.068Z,100714.03
2022-09-24T07:52:12.003Z,100714.03
2022-09-24T07:54:17.224Z,100705.88
2022-09-24T07:56:20.074Z,100670.06
2022-09-24T07:58:23.868Z,100690.75
2022-09-24T08:00:26.427Z,100758.97
2022-09-24T08:02:29.595Z,100768.50
2022-09-24T08:04:32.142Z,100727.66
2022-09-24T08:06:39.005Z,100710.72
2022-09-24T08:08:43.658Z,100762.72
2022-09-24T08:10:46.191Z,100755.00
2022-09-24T08:12:48.842Z,100772.22
2022-09-24T08:14:51.886Z,100713.13
2022-09-24T08:16:54.587Z,100779.38
2022-09-24T08:18:57.237Z,100748.09
2022-09-24T08:21:12.016Z,100742.81
2022-09-24T08:23:14.631Z,100752.06
2022-09-24T08:25:17.327Z,100735.09
2022-09-24T08:27:20.661Z,100771.69
2022-09-24T08:29:23.148Z,100733.53
2022-09-24T08:31:27.267Z,100749.69
2022-09-24T08:33:32.346Z,100740.16
2022-09-24T08:35:35.966Z,100757.38
2022-09-24T08:37:39.529Z,100749.94
2022-09-24T08:39:42.358Z,100747.03
2022-09-24T08:41:57.179Z,100763.16
2022-09-24T08:44:45.202Z,100739.81
2022-09-24T08:47:21.670Z,100759.47
2022-09-24T08:49:31.409Z,100759.97
2022-09-24T08:51:46.572Z,100738.19
2022-09-24T08:54:05.393Z,100755.59
2022-09-24T08:56:09.946Z,100667.88
2022-09-24T08:58:41.851Z,100769.84
2022-09-24T09:01:11.316Z,100762.53
2022-09-24T09:04:03.598Z,100762.09
2022-09-24T09:06:56.018Z,100762.41
2022-09-24T09:09:14.774Z,100763.59
2022-09-24T09:11:22.377Z,100729.25
2022-09-24T09:13:58.007Z,100761.34
2022-09-24T09:16:25.395Z,100743.41
2022-09-24T09:18:39.948Z,100756.97
2022-09-24T09:20:49.998Z,100761.78
2022-09-24T09:22:55.967Z,100750.47
2022-09-24T09:25:27.159Z,100760.13
2022-09-24T09:27:29.875Z,100741.66
2022-09-24T09:29:32.656Z,100744.88
2022-09-24T09:31:53.903Z,100745.50
2022-09-24T09:34:36.538Z,100738.00
2022-09-24T09:37:00.386Z,100756.31
2022-09-24T09:39:47.862Z,100746.03
2022-09-24T09:42:18.937Z,100751.16
2022-09-24T09:44:27.101Z,100742.66
2022-09-24T09:46:34.705Z,100741.06
2022-09-24T09:48:54.224Z,100744.22
2022-09-24T09:51:04.535Z,100741.88
2022-09-24T09:53:26.397Z,100746.22
2022-09-24T09:55:34.808Z,100669.81
2022-09-24T09:57:40.429Z,100667.31
2022-09-24T09:59:50.048Z,100755.53
2022-09-24T10:01:55.965Z,100714.91
2022-09-24T10:04:03.273Z,100646.91
2022-09-24T10:06:07.050Z,100744.06
2022-09-24T10:08:24.642Z,100730.56
2022-09-24T10:10:29.269Z,100750.19
2022-09-24T10:12:31.821Z,100742.56
2022-09-24T10:14:35.151Z,100752.75
2022-09-24T10:16:49.088Z,100715.72
2022-09-24T10:18:51.735Z,100718.38
2022-09-24T10:20:55.843Z,100704.84
2022-09-24T10:23:08.335Z,100749.59
2022-09-24T10:25:24.636Z,100744.03
2022-09-24T10:27:35.858Z,100634.47
2022-09-24T10:29:58.270Z,100749.03
2022-09-24T10:32:01.746Z,100701.34
2022-09-24T10:34:33.689Z,100712.50
2022-09-24T10:36:36.311Z,100725.91
2022-09-24T10:38:38.861Z,100726.03
2022-09-24T10:40:41.939Z,100744.31
2022-09-24T10:42:44.605Z,100740.78
2022-09-24T10:44:52.644Z,100715.22
2022-09-24T10:47:26.654Z,100730.44
2022-09-24T10:50:07.590Z,100744.00
2022-09-24T10:52:39.461Z,100721.84
2022-09-24T10:55:19.888Z,100739.47
2022-09-24T10:57:35.062Z,100728.41
2022-09-24T11:00:31.040Z,100688.19
2022-09-24T11:03:03.297Z,100699.78
2022-09-24T11:05:13.490Z,100722.84
2022-09-24T11:07:42.474Z,100729.38
2022-09-24T11:10:09.958Z,100732.34
2022-09-24T11:12:25.887Z,100727.59
2022-09-24T11:15:02.292Z,100715.72
2022-09-24T11:17:22.783Z,100732.53
2022-09-24T11:19:50.893Z,100732.94
2022-09-24T11:22:33.512Z,100733.16
2022-09-24T11:24:39.264Z,100727.88
2022-09-24T11:26:57.249Z,100714.22
2022-09-24T11:29:37.605Z,100720.16
2022-09-24T11:32:25.198Z,100711.53
2022-09-24T11:34:38.291Z,100726.78
2022-09-24T11:37:26.550Z,100715.06
2022-09-24T11:39:39.049Z,100724.59
2022-09-24T11:42:09.707Z,100706.16
2022-09-24T11:44:23.699Z,100727.88
2022-09-24T11:46:51.207Z,100726.19
2022-09-24T11:49:26.473Z,100718.69
2022-09-24T11:51:51.807Z,100710.75
2022-09-24T11:54:23.093Z,100730.88
2022-09-24T11:56:34.181Z,100728.34
2022-09-24T11:58:45.927Z,100725.38
2022-09-24T12:01:15.705Z,100720.41
2022-09-24T12:03:47.663Z,100709.41
2022-09-24T12:06:22.824Z,100699.84
2022-09-24T12:08:50.562Z,100730.13
2022-09-24T12:11:18.620Z,100726.56
2022-09-24T12:13:39.259Z,100721.22
2022-09-24T12:15:51.796Z,100717.84
2022-09-24T12:18:11.451Z,100674.31
2022-09-24T12:20:28.362Z,100722.91
2022-09-24T12:22:33.245Z,100698.25
2022-09-24T12:24:42.783Z,100686.28
2022-09-24T12:26:47.113Z,100716.69
2022-09-24T12:29:18.374Z,100710.53
2022-09-24T12:32:04.009Z,100711.66
2022-09-24T12:34:22.340Z,100710.38
2022-09-24T12:36:43.084Z,100708.50
2022-09-24T12:38:52.471Z,100660.16
2022-09-24T12:41:22.010Z,100707.59
2022-09-24T12:43:46.773Z,100685.44
2022-09-24T12:46:00.213Z,100700.44
2022-09-24T12:48:03.287Z,100663.94
2022-09-24T12:50:08.765Z,100670.28
2022-09-24T12:52:23.393Z,100709.50
2022-09-24T12:54:34.424Z,100719.28
2022-09-24T12:56:37.156Z,100688.69
2022-09-24T12:58:47.343Z,100692.56
2022-09-24T13:00:53.502Z,100704.22
2022-09-24T13:02:56.624Z,100666.53
2022-09-24T13:05:02.137Z,100698.38
2022-09-24T13:07:39.939Z,100669.50
2022-09-24T13:09:42.711Z,100674.31
2022-09-24T13:11:45.572Z,100665.81
2022-09-24T13:14:21.685Z,100682.16
2022-09-24T13:16:24.299Z,100662.84
2022-09-24T13:18:27.494Z,100664.66
2022-09-24T13:20:30.630Z,100640.91
2022-09-24T13:22:36.593Z,100682.44
2022-09-24T13:24:52.602Z,100632.19
2022-09-24T13:26:55.269Z,100660.00
2022-09-24T13:29:05.777Z,100618.84
2022-09-24T13:31:19.300Z,100655.53
2022-09-24T13:33:32.018Z,100675.94
2022-09-24T13:35:52.006Z,100677.47
2022-09-24T13:38:09.103Z,100643.00
2022-09-24T13:40:22.821Z,100663.13
2022-09-24T13:42:48.467Z,100647.66
2022-09-24T13:45:03.330Z,100656.34
2022-09-24T13:47:39.000Z,100641.28
2022-09-24T13:49:48.632Z,100648.38
2022-09-24T13:52:09.035Z,100647.78
2022-09-24T13:54:34.242Z,100661.59
2022-09-24T13:56:36.845Z,100634.91
2022-09-24T13:58:41.583Z,100670.19
2022-09-24T14:00:44.139Z,100648.31
2022-09-24T14:03:22.414Z,100652.66
2022-09-24T14:05:26.562Z,100644.66
2022-09-24T14:07:29.808Z,100659.66
2022-09-24T14:09:36.345Z,100663.72
2022-09-24T14:11:38.869Z,100669.44
2022-09-24T14:13:45.785Z,100651.22
2022-09-24T14:16:00.306Z,100672.13
2022-09-24T14:18:03.131Z,100551.63
2022-09-24T14:20:06.374Z,100614.91
2022-09-24T14:22:23.836Z,100651.00
2022-09-24T14:24:34.184Z,100659.72
2022-09-24T14:27:13.524Z,100667.53
2022-09-24T14:29:26.850Z,100674.91
2022-09-24T14:31:29.953Z,100622.84
2022-09-24T14:33:34.185Z,100672.56
2022-09-24T14:35:40.427Z,100676.31
2022-09-24T14:37:50.397Z,100656.41
2022-09-24T14:40:05.324Z,100630.53
2022-09-24T14:42:30.363Z,100657.41
2022-09-24T14:44:32.975Z,100641.47
2022-09-24T14:46:59.803Z,100648.41
2022-09-24T14:49:23.458Z,100668.88
2022-09-24T14:51:31.378Z,100660.50
2022-09-24T14:53:37.843Z,100639.31
2022-09-24T14:55:45.484Z,100655.84
2022-09-24T14:57:53.994Z,100652.88
2022-09-24T14:59:59.507Z,100596.50
2022-09-24T15:02:31.385Z,100653.97
2022-09-24T15:04:34.932Z,100612.34
2022-09-24T15:06:38.407Z,100619.34
2022-09-24T15:08:42.803Z,100657.72
2022-09-24T15:11:04.517Z,100608.00
2022-09-24T15:13:15.484Z,100620.69
2022-09-24T15:15:18.207Z,100657.91
2022-09-24T15:17:27.031Z,100642.50
2022-09-24T15:19:30.896Z,100593.22
2022-09-24T15:21:34.644Z,100663.94
2022-09-24T15:23:37.695Z,100615.50
2022-09-24T15:25:43.262Z,100609.63
2022-09-24T15:27:46.020Z,100635.63
2022-09-24T15:29:48.821Z,100621.75
2022-09-24T15:31:52.707Z,100626.91
2022-09-24T15:33:56.177Z,100648.41
2022-09-24T15:35:59.300Z,100607.00
2022-09-24T15:38:01.870Z,100548.69
2022-09-24T15:40:31.136Z,100643.03
2022-09-24T15:42:33.868Z,100607.75
2022-09-24T15:44:36.473Z,100602.97
2022-09-24T15:46:40.483Z,100612.34
2022-09-24T15:48:44.695Z,100578.78
2022-09-24T15:50:47.832Z,100606.88
2022-09-24T15:53:00.247Z,100630.75
2022-09-24T15:55:13.070Z,100640.03
2022-09-24T15:57:16.727Z,100627.72
2022-09-24T15:59:22.440Z,100631.75
2022-09-24T16:01:25.148Z,100640.00
2022-09-24T16:03:31.234Z,100663.88
2022-09-24T16:05:33.814Z,100607.66
2022-09-24T16:07:36.355Z,100621.75
2022-09-24T16:09:39.423Z,100652.19
2022-09-24T16:11:42.180Z,100600.19
2022-09-24T16:13:44.807Z,100605.31
2022-09-24T16:15:47.621Z,100599.81
2022-09-24T16:17:50.295Z,100601.41
2022-09-24T16:19:52.901Z,100589.38
2022-09-24T16:21:55.449Z,100651.28
2022-09-24T16:23:58.043Z,100647.69
2022-09-24T16:26:01.028Z,100627.91
2022-09-24T16:28:03.623Z,100658.88
2022-09-24T16:30:07.483Z,100681.19
2022-09-24T16:32:10.669Z,100621.44
2022-09-24T16:34:13.398Z,100663.75
2022-09-24T16:36:16.018Z,100645.81
2022-09-24T16:38:22.836Z,100674.97
2022-09-24T16:40:25.936Z,100645.91
2022-09-24T16:42:28.678Z,100654.94
2022-09-24T16:44:31.315Z,100649.91
2022-09-24T16:46:33.892Z,100680.94
2022-09-24T16:48:37.231Z,100625.16
2022-09-24T16:50:39.805Z,100652.72
2022-09-24T16:52:44.908Z,100658.59
2022-09-24T16:54:47.669Z,100668.66
2022-09-24T16:56:52.356Z,100649.91
2022-09-24T16:58:55.100Z,100663.69
2022-09-24T17:00:57.697Z,100682.78
2022-09-24T17:03:00.316Z,100599.16
2022-09-24T17:05:04.183Z,100706.66
2022-09-24T17:07:06.786Z,100641.28
2022-09-24T17:09:28.928Z,100676.00
2022-09-24T17:11:31.814Z,100691.88
2022-09-24T17:13:34.349Z,100633.66
2022-09-24T17:15:36.922Z,100667.53
2022-09-24T17:17:44.488Z,100706.22
2022-09-24T17:19:51.098Z,100686.63
2022-09-24T17:21:54.311Z,100656.47
2022-09-24T17:23:56.990Z,100688.72
2022-09-24T17:26:21.629Z,100686.91
2022-09-24T17:28:24.456Z,100657.00
2022-09-24T17:30:27.021Z,100663.34
2022-09-24T17:32:29.638Z,100614.09
2022-09-24T17:34:32.178Z,100685.66
2022-09-24T17:40:22.944Z,100676.66
2022-09-24T17:42:26.613Z,100617.59
2022-09-24T17:44:29.203Z,100632.72
2022-09-24T17:46:32.821Z,100676.38
2022-09-24T17:48:39.120Z,100648.34
2022-09-24T17:50:43.402Z,100710.06
2022-09-24T17:52:45.938Z,100690.47
2022-09-24T17:54:48.494Z,100654.72
2022-09-24T17:56:51.172Z,100700.56
2022-09-24T17:58:56.097Z,100704.31
2022-09-24T18:01:21.360Z,100707.22
2022-09-24T18:03:23.909Z,100681.00
2022-09-24T18:05:26.672Z,100617.69
2022-09-24T18:07:30.038Z,100659.84
2022-09-24T18:09:32.584Z,100707.00
2022-09-24T18:11:47.384Z,100709.13
2022-09-24T18:13:53.243Z,100703.56
2022-09-24T18:15:55.825Z,100677.59
2022-09-24T18:17:58.478Z,100700.66
2022-09-24T18:20:01.192Z,100668.28
2022-09-24T18:22:06.018Z,100704.88
2022-09-24T18:24:10.188Z,100710.22
2022-09-24T18:26:22.711Z,100703.81
2022-09-24T18:28:25.920Z,100631.19
2022-09-24T18:30:28.696Z,100587.22
2022-09-24T18:32:31.868Z,100714.41
2022-09-24T18:34:34.540Z,100683.63
2022-09-24T18:36:39.685Z,100685.00
2022-09-24T18:38:44.252Z,100687.63
2022-09-24T18:40:47.378Z,100669.06
2022-09-24T18:42:50.520Z,100702.97
2022-09-24T18:44:53.161Z,100604.09
2022-09-24T18:46:55.723Z,100710.41
2022-09-24T18:48:59.589Z,100724.97
2022-09-24T18:51:02.399Z,100717.81
2022-09-24T18:53:06.064Z,100713.31
2022-09-24T18:55:09.512Z,100701.38
2022-09-24T18:57:12.114Z,100636.69
2022-09-24T18:59:19.024Z,100706.13
2022-09-24T19:01:22.196Z,100698.97
2022-09-24T19:03:25.403Z,100684.66
2022-09-24T19:05:28.819Z,100706.41
2022-09-24T19:07:32.272Z,100667.16
2022-09-24T19:09:37.999Z,100741.69
2022-09-24T19:11:41.999Z,100723.09
2022-09-24T19:13:53.051Z,100743.00
2022-09-24T19:15:55.752Z,100732.38
2022-09-24T19:17:58.289Z,100698.44
2022-09-24T19:20:00.865Z,100682.50
2022-09-24T19:22:03.595Z,100609.31
2022-09-24T19:24:06.871Z,100737.91
2022-09-24T19:26:10.773Z,100732.63
2022-09-24T19:28:14.153Z,100738.19
2022-09-24T19:30:18.072Z,100704.50
2022-09-24T19:32:20.641Z,100648.00
2022-09-24T19:34:23.143Z,100613.00
2022-09-24T19:36:25.705Z,100714.84
2022-09-24T19:38:35.708Z,100718.56
2022-09-24T19:40:38.402Z,100668.16
2022-09-24T19:42:41.392Z,100700.50
2022-09-24T19:44:43.952Z,100655.41
2022-09-24T19:46:46.866Z,100704.72
2022-09-24T19:48:50.259Z,100696.25
2022-09-24T19:50:54.430Z,100667.56
2022-09-24T19:52:57.599Z,100704.44
2022-09-24T19:55:00.151Z,100711.56
2022-09-24T19:57:02.703Z,100663.78
2022-09-24T19:59:07.879Z,100685.56
2022-09-24T20:01:16.188Z,100683.44
2022-09-24T20:03:20.061Z,100687.69
2022-09-24T20:05:22.982Z,100701.19
2022-09-24T20:07:25.573Z,100650.47
2022-09-24T20:09:28.153Z,100724.22
2022-09-24T20:11:32.863Z,100712.28
2022-09-24T20:13:36.129Z,100703.53
2022-09-24T20:15:41.416Z,100748.06
2022-09-24T20:17:44.088Z,100696.78
2022-09-24T20:19:46.642Z,100708.75
2022-09-24T20:21:49.211Z,100720.94
2022-09-24T20:23:55.101Z,100716.41
2022-09-24T20:26:16.342Z,100693.63
2022-09-24T20:28:19.331Z,100658.31
2022-09-24T20:30:23.972Z,100703.94
2022-09-24T20:32:26.561Z,100659.34
2022-09-24T20:34:34.199Z,100701.81
2022-09-24T20:36:37.104Z,100647.69
2022-09-24T20:43:11.798Z,100707.09
2022-09-24T20:45:14.569Z,100667.50
2022-09-24T20:47:17.115Z,100689.75
2022-09-24T20:49:23.330Z,100736.72
2022-09-24T20:51:31.159Z,100735.63
2022-09-24T20:53:34.708Z,100578.50
2022-09-24T20:55:39.330Z,100740.38
2022-09-24T20:57:43.547Z,100692.53
2022-09-24T20:59:46.046Z,100634.94
2022-09-24T21:01:49.500Z,100718.00
2022-09-24T21:03:53.079Z,100747.13
2022-09-24T21:06:04.907Z,100721.91
2022-09-24T21:08:08.863Z,100692.16
2022-09-24T21:10:12.721Z,100741.22
2022-09-24T21:12:15.289Z,100731.41
2022-09-24T21:14:17.879Z,100736.41
2022-09-24T21:16:26.730Z,100752.81
2022-09-24T21:18:39.911Z,100744.34
2022-09-24T21:20:43.272Z,100710.84
2022-09-24T21:22:45.854Z,100731.81
2022-09-24T21:24:51.326Z,100712.97
2022-09-24T21:26:53.911Z,100715.59
2022-09-24T21:29:01.032Z,100745.88
2022-09-24T21:31:05.081Z,100749.56
2022-09-24T21:33:07.707Z,100710.81
2022-09-24T21:35:10.439Z,100708.13
2022-09-24T21:37:14.628Z,100744.78
2022-09-24T21:39:20.736Z,100725.66
2022-09-24T21:41:29.695Z,100626.88
2022-09-24T21:43:35.019Z,100704.94
2022-09-24T21:45:37.743Z,100661.88
2022-09-24T21:47:40.382Z,100640.91
2022-09-24T21:49:42.986Z,100680.97
2022-09-24T21:51:46.461Z,100723.47
2022-09-24T21:53:54.624Z,100741.03
2022-09-24T21:55:57.191Z,100711.75
2022-09-24T21:57:59.750Z,100671.66
2022-09-24T22:00:04.658Z,100682.47
2022-09-24T22:02:08.699Z,100723.63
2022-09-24T22:04:12.095Z,100703.28
2022-09-24T22:06:15.761Z,100731.66
2022-09-24T22:08:21.738Z,100724.72
2022-09-24T22:10:24.504Z,100718.06
2022-09-24T22:12:27.107Z,100710.56
2022-09-24T22:14:29.787Z,100710.25
2022-09-24T22:16:35.269Z,100713.47
2022-09-24T22:18:39.293Z,100697.25
2022-09-24T22:20:45.341Z,100675.94
2022-09-24T22:22:48.223Z,100691.91
2022-09-24T22:24:50.774Z,100701.47
2022-09-24T22:26:54.372Z,100650.75
2022-09-24T22:28:58.494Z,100735.44
2022-09-24T22:31:06.837Z,100672.22
2022-09-24T22:33:09.673Z,100709.19
2022-09-24T22:35:31.053Z,100698.31
2022-09-24T22:37:33.866Z,100664.59
2022-09-24T22:39:36.553Z,100659.53
2022-09-24T22:41:40.607Z,100658.47
2022-09-24T22:48:10.357Z,100667.84
2022-09-24T22:50:13.847Z,100728.69
2022-09-24T22:52:16.368Z,100674.44
2022-09-24T22:54:19.768Z,100697.34
2022-09-24T22:56:25.062Z,100722.41
2022-09-24T22:58:28.101Z,100705.69
2022-09-24T23:00:30.692Z,100683.16
2022-09-24T23:02:36.968Z,100677.66
2022-09-24T23:04:41.567Z,100672.13
2022-09-24T23:06:44.415Z,100688.59
2022-09-24T23:08:48.442Z,100716.19
2022-09-24T23:10:51.287Z,100616.88
2022-09-24T23:12:54.201Z,100649.81
2022-09-24T23:14:58.138Z,100683.03
2022-09-24T23:17:00.745Z,100637.16
2022-09-24T23:19:07.960Z,100705.16
2022-09-24T23:21:15.769Z,100713.09
2022-09-24T23:23:19.077Z,100575.16
2022-09-24T23:25:22.115Z,100689.53
2022-09-24T23:27:25.685Z,100624.25
2022-09-24T23:29:28.183Z,100665.44
2022-09-24T23:31:34.308Z,100695.69
2022-09-24T23:33:39.332Z,100658.25
2022-09-24T23:35:41.899Z,100686.38
2022-09-24T23:37:44.601Z,100635.69
2022-09-24T23:39:47.214Z,100660.66
2022-09-24T23:41:49.720Z,100675.78
2022-09-24T23:43:52.531Z,100708.69
2022-09-24T23:45:55.463Z,100693.59
2022-09-24T23:47:58.008Z,100671.81
2022-09-24T23:50:00.576Z,100675.28
2022-09-24T23:52:03.303Z,100676.88
2022-09-24T23:54:06.220Z,100676.88
2022-09-24T23:56:09.299Z,100600.44
2022-09-24T23:58:14.791Z,100715.59
